createdAt,value
2019-03-06T00:00:30.574Z,55.32
2019-03-06T00:01:35.639Z,55.33
2019-03-06T00:02:39.362Z,55.31
2019-03-06T00:03:42.843Z,55.30
2019-03-06T00:04:46.358Z,55.27
2019-03-06T00:05:49.922Z,55.27
2019-03-06T00:06:53.502Z,55.25
2019-03-06T00:07:57.018Z,55.23
2019-03-06T00:09:00.563Z,55.21
2019-03-06T00:10:05.599Z,55.19
2019-03-06T00:11:09.065Z,55.17
2019-03-06T00:12:12.599Z,55.14
2019-03-06T00:13:16.117Z,55.15
2019-03-06T00:14:19.604Z,55.15
2019-03-06T00:15:23.302Z,55.17
2019-03-06T00:16:26.785Z,55.20
2019-03-06T00:17:30.255Z,55.17
2019-03-06T00:18:33.766Z,55.17
2019-03-06T00:19:37.251Z,55.21
2019-03-06T00:20:40.785Z,55.27
2019-03-06T00:21:44.307Z,55.30
2019-03-06T00:22:47.882Z,55.35
2019-03-06T00:23:51.343Z,55.38
2019-03-06T00:24:54.806Z,55.46
2019-03-06T00:25:58.279Z,55.48
2019-03-06T00:27:01.720Z,55.54
2019-03-06T00:28:05.324Z,55.57
2019-03-06T00:29:08.799Z,55.58
2019-03-06T00:30:14.948Z,55.60
2019-03-06T00:31:18.655Z,55.53
2019-03-06T00:32:22.163Z,55.60
2019-03-06T00:33:25.606Z,55.60
2019-03-06T00:34:29.091Z,55.58
2019-03-06T00:35:34.169Z,55.54
2019-03-06T00:36:37.707Z,55.50
2019-03-06T00:37:41.238Z,55.50
2019-03-06T00:38:44.753Z,55.51
2019-03-06T00:39:49.875Z,55.60
2019-03-06T00:41:06.425Z,55.69
2019-03-06T00:42:09.872Z,55.64
2019-03-06T00:43:13.411Z,55.64
2019-03-06T00:44:16.868Z,55.66
2019-03-06T00:45:20.337Z,55.71
2019-03-06T00:46:23.797Z,55.79
2019-03-06T00:47:27.233Z,55.87
2019-03-06T00:48:30.742Z,55.92
2019-03-06T00:49:36.136Z,55.89
2019-03-06T00:50:39.388Z,55.93
2019-03-06T00:51:42.855Z,55.93
2019-03-06T00:52:46.371Z,55.94
2019-03-06T00:53:50.125Z,55.99
2019-03-06T00:54:53.609Z,56.10
2019-03-06T00:55:57.046Z,56.10
2019-03-06T00:57:00.526Z,56.08
2019-03-06T00:58:04.107Z,56.04
2019-03-06T00:59:07.643Z,56.08
2019-03-06T01:00:20.645Z,56.14
2019-03-06T01:01:24.082Z,56.13
2019-03-06T01:02:27.555Z,56.12
2019-03-06T01:03:31.009Z,56.18
2019-03-06T01:04:34.471Z,56.19
2019-03-06T01:05:38.006Z,56.22
2019-03-06T01:06:41.445Z,56.24
2019-03-06T01:07:44.956Z,56.23
2019-03-06T01:08:48.426Z,56.21
2019-03-06T01:09:51.886Z,56.25
2019-03-06T01:10:55.425Z,56.30
2019-03-06T01:11:58.890Z,56.34
2019-03-06T01:13:02.582Z,56.34
2019-03-06T01:14:06.129Z,56.33
2019-03-06T01:15:11.592Z,56.34
2019-03-06T01:16:15.120Z,56.41
2019-03-06T01:17:18.582Z,56.43
2019-03-06T01:18:22.102Z,56.45
2019-03-06T01:19:25.573Z,56.51
2019-03-06T01:20:29.103Z,56.56
2019-03-06T01:21:32.553Z,56.56
2019-03-06T01:22:36.010Z,56.61
2019-03-06T01:23:39.491Z,56.69
2019-03-06T01:24:42.940Z,56.78
2019-03-06T01:25:46.465Z,56.81
2019-03-06T01:26:49.929Z,56.86
2019-03-06T01:27:53.376Z,56.86
2019-03-06T01:28:56.857Z,56.97
2019-03-06T01:30:00.369Z,56.97
2019-03-06T01:31:04.189Z,57.00
2019-03-06T01:32:07.709Z,57.01
2019-03-06T01:33:18.583Z,56.97
2019-03-06T01:34:39.605Z,56.97
2019-03-06T01:36:02.254Z,57.02
2019-03-06T01:37:09.993Z,57.11
2019-03-06T01:38:31.070Z,57.13
2019-03-06T01:39:52.363Z,57.07
2019-03-06T01:41:15.132Z,57.09
2019-03-06T01:42:20.419Z,57.06
2019-03-06T01:43:28.590Z,57.23
2019-03-06T01:44:33.949Z,57.36
2019-03-06T01:45:37.405Z,57.42
2019-03-06T01:46:40.870Z,57.44
2019-03-06T01:47:44.322Z,57.47
2019-03-06T01:48:47.766Z,57.58
2019-03-06T01:49:51.245Z,57.57
2019-03-06T01:50:54.695Z,57.59
2019-03-06T01:51:58.149Z,57.67
2019-03-06T01:53:01.601Z,57.64
2019-03-06T01:54:05.137Z,57.57
2019-03-06T01:55:11.542Z,57.48
2019-03-06T01:56:14.988Z,57.54
2019-03-06T01:57:18.509Z,57.59
2019-03-06T01:58:21.965Z,57.64
2019-03-06T01:59:25.442Z,57.67
2019-03-06T02:00:29.034Z,57.73
2019-03-06T02:01:32.636Z,57.73
2019-03-06T02:02:36.396Z,57.78
2019-03-06T02:03:39.921Z,57.79
2019-03-06T02:04:43.457Z,57.80
2019-03-06T02:05:46.904Z,57.81
2019-03-06T02:06:50.360Z,57.85
2019-03-06T02:07:53.809Z,57.83
2019-03-06T02:08:57.334Z,57.86
2019-03-06T02:10:00.840Z,57.95
2019-03-06T02:11:04.519Z,57.97
2019-03-06T02:12:08.108Z,57.96
2019-03-06T02:13:11.562Z,57.96
2019-03-06T02:14:15.081Z,57.97
2019-03-06T02:15:18.996Z,57.98
2019-03-06T02:16:22.522Z,57.96
2019-03-06T02:17:25.969Z,57.96
2019-03-06T02:18:29.486Z,57.99
2019-03-06T02:19:33.255Z,58.01
2019-03-06T02:20:36.727Z,58.06
2019-03-06T02:21:40.181Z,58.12
2019-03-06T02:22:43.635Z,58.12
2019-03-06T02:23:47.088Z,58.14
2019-03-06T02:24:50.539Z,58.20
2019-03-06T02:25:54.014Z,58.21
2019-03-06T02:26:57.465Z,58.24
2019-03-06T02:28:00.962Z,58.28
2019-03-06T02:29:04.748Z,58.30
2019-03-06T02:30:14.135Z,58.28
2019-03-06T02:31:17.602Z,58.35
2019-03-06T02:32:21.072Z,58.33
2019-03-06T02:33:24.526Z,58.33
2019-03-06T02:34:27.980Z,58.38
2019-03-06T02:35:31.495Z,58.42
2019-03-06T02:36:34.986Z,58.43
2019-03-06T02:37:38.711Z,58.42
2019-03-06T02:38:42.162Z,58.39
2019-03-06T02:39:45.611Z,58.39
2019-03-06T02:40:49.064Z,58.46
2019-03-06T02:41:52.619Z,58.52
2019-03-06T02:42:56.060Z,58.53
2019-03-06T02:43:59.509Z,58.55
2019-03-06T02:45:03.029Z,58.63
2019-03-06T02:46:06.622Z,58.62
2019-03-06T02:47:10.168Z,58.62
2019-03-06T02:48:13.623Z,58.62
2019-03-06T02:49:17.079Z,58.63
2019-03-06T02:50:20.666Z,58.67
2019-03-06T02:51:24.117Z,58.61
2019-03-06T02:52:27.615Z,58.62
2019-03-06T02:53:31.142Z,58.64
2019-03-06T02:54:34.662Z,58.66
2019-03-06T02:55:38.116Z,58.67
2019-03-06T02:56:41.643Z,58.69
2019-03-06T02:57:52.744Z,58.65
2019-03-06T02:58:57.835Z,58.65
2019-03-06T03:00:02.946Z,58.67
2019-03-06T03:01:25.882Z,58.73
2019-03-06T03:02:36.575Z,58.73
2019-03-06T03:03:47.266Z,58.80
2019-03-06T03:04:52.529Z,58.89
2019-03-06T03:06:00.262Z,58.97
2019-03-06T03:07:05.595Z,59.00
2019-03-06T03:08:09.137Z,58.93
2019-03-06T03:09:17.407Z,58.95
2019-03-06T03:10:20.861Z,58.94
2019-03-06T03:11:24.314Z,59.10
2019-03-06T03:12:27.765Z,59.12
2019-03-06T03:13:31.317Z,59.08
2019-03-06T03:14:34.789Z,59.06
2019-03-06T03:15:38.311Z,59.03
2019-03-06T03:16:41.836Z,59.01
2019-03-06T03:17:45.287Z,59.00
2019-03-06T03:18:48.759Z,58.97
2019-03-06T03:19:52.211Z,58.87
2019-03-06T03:20:55.664Z,58.78
2019-03-06T03:21:59.195Z,58.77
2019-03-06T03:23:02.704Z,58.74
2019-03-06T03:24:06.177Z,58.69
2019-03-06T03:25:09.941Z,58.69
2019-03-06T03:26:13.393Z,58.71
2019-03-06T03:27:16.863Z,58.71
2019-03-06T03:28:20.312Z,58.60
2019-03-06T03:29:23.852Z,58.62
2019-03-06T03:30:27.307Z,58.58
2019-03-06T03:31:30.765Z,58.53
2019-03-06T03:32:34.201Z,58.48
2019-03-06T03:33:37.672Z,58.64
2019-03-06T03:34:41.160Z,58.79
2019-03-06T03:35:44.590Z,58.96
2019-03-06T03:36:48.087Z,59.06
2019-03-06T03:37:51.528Z,59.18
2019-03-06T03:38:54.970Z,59.27
2019-03-06T03:39:58.528Z,59.31
2019-03-06T03:41:02.244Z,59.28
2019-03-06T03:42:05.785Z,59.22
2019-03-06T03:43:09.251Z,59.10
2019-03-06T03:44:12.687Z,59.14
2019-03-06T03:45:16.811Z,59.17
2019-03-06T03:46:20.249Z,59.17
2019-03-06T03:47:23.687Z,59.13
2019-03-06T03:48:27.151Z,59.13
2019-03-06T03:49:30.604Z,59.07
2019-03-06T03:50:34.084Z,59.13
2019-03-06T03:51:37.549Z,59.25
2019-03-06T03:52:40.988Z,59.30
2019-03-06T03:53:44.459Z,59.22
2019-03-06T03:54:47.905Z,59.11
2019-03-06T03:55:51.366Z,58.99
2019-03-06T03:56:55.114Z,58.99
2019-03-06T03:57:58.550Z,58.80
2019-03-06T03:59:02.091Z,58.69
2019-03-06T04:00:08.600Z,58.65
2019-03-06T04:01:12.131Z,58.72
2019-03-06T04:02:15.591Z,58.64
2019-03-06T04:03:19.250Z,58.47
2019-03-06T04:04:23.041Z,58.43
2019-03-06T04:05:26.503Z,58.39
2019-03-06T04:06:29.972Z,58.47
2019-03-06T04:07:33.439Z,58.38
2019-03-06T04:08:36.916Z,58.28
2019-03-06T04:09:40.362Z,58.26
2019-03-06T04:10:43.847Z,58.15
2019-03-06T04:11:47.292Z,58.00
2019-03-06T04:12:50.911Z,57.90
2019-03-06T04:13:54.657Z,57.61
2019-03-06T04:14:58.096Z,57.28
2019-03-06T04:16:01.698Z,57.20
2019-03-06T04:17:05.324Z,56.94
2019-03-06T04:18:08.755Z,56.68
2019-03-06T04:19:12.248Z,56.53
2019-03-06T04:20:18.756Z,56.24
2019-03-06T04:21:22.236Z,56.08
2019-03-06T04:22:25.728Z,55.97
2019-03-06T04:23:29.173Z,55.70
2019-03-06T04:24:32.635Z,55.48
2019-03-06T04:25:36.226Z,55.23
2019-03-06T04:26:39.691Z,55.13
2019-03-06T04:27:43.181Z,54.88
2019-03-06T04:28:46.616Z,54.78
2019-03-06T04:29:50.234Z,54.83
2019-03-06T04:30:53.694Z,54.64
2019-03-06T04:31:57.157Z,54.62
2019-03-06T04:33:00.642Z,54.56
2019-03-06T04:34:04.174Z,54.44
2019-03-06T04:35:07.991Z,54.42
2019-03-06T04:36:11.531Z,54.36
2019-03-06T04:37:14.968Z,54.28
2019-03-06T04:38:18.432Z,54.21
2019-03-06T04:39:21.887Z,54.16
2019-03-06T04:40:25.351Z,54.15
2019-03-06T04:41:28.818Z,54.17
2019-03-06T04:42:32.265Z,54.16
2019-03-06T04:43:35.737Z,54.19
2019-03-06T04:44:39.189Z,54.16
2019-03-06T04:45:42.656Z,54.12
2019-03-06T04:46:46.289Z,54.13
2019-03-06T04:47:49.753Z,54.16
2019-03-06T04:48:53.228Z,54.23
2019-03-06T04:49:56.690Z,54.24
2019-03-06T04:51:00.163Z,54.33
2019-03-06T04:52:03.617Z,54.39
2019-03-06T04:53:07.142Z,54.47
2019-03-06T04:54:10.573Z,54.56
2019-03-06T04:55:14.968Z,54.64
2019-03-06T04:56:18.421Z,54.74
2019-03-06T04:57:21.876Z,54.82
2019-03-06T04:58:26.276Z,54.88
2019-03-06T04:59:29.785Z,55.01
2019-03-06T05:00:33.236Z,55.05
2019-03-06T05:01:36.700Z,55.04
2019-03-06T05:02:40.154Z,54.99
2019-03-06T05:03:43.921Z,55.08
2019-03-06T05:04:47.360Z,54.91
2019-03-06T05:05:50.881Z,54.80
2019-03-06T05:06:54.341Z,54.76
2019-03-06T05:07:57.797Z,54.66
2019-03-06T05:09:01.285Z,54.61
2019-03-06T05:10:07.162Z,54.53
2019-03-06T05:11:10.625Z,54.48
2019-03-06T05:12:14.073Z,54.43
2019-03-06T05:13:17.536Z,54.32
2019-03-06T05:14:21.008Z,54.41
2019-03-06T05:15:24.465Z,54.39
2019-03-06T05:16:29.556Z,54.23
2019-03-06T05:17:50.635Z,54.16
2019-03-06T05:18:55.734Z,54.24
2019-03-06T05:19:59.210Z,54.31
2019-03-06T05:21:02.704Z,54.34
2019-03-06T05:22:06.221Z,54.44
2019-03-06T05:23:09.687Z,54.46
2019-03-06T05:24:13.143Z,54.52
2019-03-06T05:25:16.630Z,54.56
2019-03-06T05:26:20.357Z,54.68
2019-03-06T05:27:23.889Z,54.74
2019-03-06T05:28:27.341Z,54.76
2019-03-06T05:29:30.805Z,54.66
2019-03-06T05:30:34.368Z,54.70
2019-03-06T05:31:37.822Z,54.54
2019-03-06T05:32:41.316Z,54.56
2019-03-06T05:33:44.773Z,54.40
2019-03-06T05:34:48.222Z,54.33
2019-03-06T05:36:06.606Z,54.43
2019-03-06T05:37:45.855Z,54.31
2019-03-06T05:39:07.073Z,54.38
2019-03-06T05:40:10.526Z,54.45
2019-03-06T05:41:14.002Z,54.51
2019-03-06T05:42:17.466Z,54.57
2019-03-06T05:43:20.923Z,54.72
2019-03-06T05:44:24.458Z,54.74
2019-03-06T05:45:28.168Z,54.80
2019-03-06T05:46:31.643Z,54.84
2019-03-06T05:47:35.106Z,54.87
2019-03-06T05:48:38.560Z,54.82
2019-03-06T05:49:42.001Z,54.86
2019-03-06T05:50:45.463Z,54.84
2019-03-06T05:51:48.951Z,54.88
2019-03-06T05:52:52.466Z,54.86
2019-03-06T05:53:55.939Z,54.75
2019-03-06T05:54:59.377Z,54.72
2019-03-06T05:56:02.812Z,54.76
2019-03-06T05:57:06.315Z,54.80
2019-03-06T05:58:09.746Z,54.86
2019-03-06T05:59:13.218Z,54.86
2019-03-06T06:00:19.358Z,54.91
2019-03-06T06:01:22.797Z,55.03
2019-03-06T06:02:27.951Z,55.05
2019-03-06T06:03:31.592Z,55.12
2019-03-06T06:04:35.037Z,55.18
2019-03-06T06:05:39.940Z,55.21
2019-03-06T06:06:43.756Z,55.23
2019-03-06T06:07:47.242Z,55.21
2019-03-06T06:08:50.783Z,55.22
2019-03-06T06:09:54.221Z,55.17
2019-03-06T06:10:57.693Z,55.08
2019-03-06T06:12:01.144Z,55.09
2019-03-06T06:13:04.720Z,55.04
2019-03-06T06:14:08.186Z,55.04
2019-03-06T06:15:15.580Z,55.05
2019-03-06T06:16:19.053Z,55.07
2019-03-06T06:17:22.542Z,55.02
2019-03-06T06:18:25.990Z,55.09
2019-03-06T06:19:29.447Z,55.16
2019-03-06T06:20:32.893Z,55.22
2019-03-06T06:21:38.141Z,55.24
2019-03-06T06:22:49.238Z,55.35
2019-03-06T06:23:54.311Z,55.40
2019-03-06T06:24:57.955Z,55.45
2019-03-06T06:26:01.408Z,55.49
2019-03-06T06:27:04.986Z,55.55
2019-03-06T06:28:08.488Z,55.60
2019-03-06T06:29:11.921Z,55.44
2019-03-06T06:30:16.036Z,55.40
2019-03-06T06:31:19.508Z,55.50
2019-03-06T06:32:22.946Z,55.34
2019-03-06T06:33:26.423Z,55.38
2019-03-06T06:34:29.893Z,55.42
2019-03-06T06:35:33.336Z,55.36
2019-03-06T06:36:36.793Z,55.39
2019-03-06T06:37:40.368Z,55.42
2019-03-06T06:38:43.824Z,55.48
2019-03-06T06:39:47.361Z,55.51
2019-03-06T06:40:50.803Z,55.57
2019-03-06T06:41:54.446Z,55.66
2019-03-06T06:42:57.916Z,55.69
2019-03-06T06:44:01.372Z,55.68
2019-03-06T06:45:07.879Z,55.68
2019-03-06T06:46:11.346Z,55.69
2019-03-06T06:47:14.784Z,55.74
2019-03-06T06:48:20.861Z,55.72
2019-03-06T06:49:24.325Z,55.58
2019-03-06T06:50:27.812Z,55.59
2019-03-06T06:51:56.597Z,55.54
2019-03-06T06:53:29.863Z,55.54
2019-03-06T06:54:42.427Z,55.49
2019-03-06T06:55:57.887Z,55.49
2019-03-06T06:57:34.424Z,55.67
2019-03-06T06:58:52.323Z,55.66
2019-03-06T07:00:18.266Z,55.79
2019-03-06T07:01:43.688Z,55.84
2019-03-06T07:03:15.484Z,55.91
2019-03-06T07:04:26.094Z,55.91
2019-03-06T07:05:37.057Z,55.96
2019-03-06T07:06:42.165Z,55.92
2019-03-06T07:07:47.457Z,55.88
2019-03-06T07:08:55.591Z,55.94
2019-03-06T07:10:16.790Z,55.89
2019-03-06T07:11:21.867Z,55.83
2019-03-06T07:12:29.387Z,55.82
2019-03-06T07:13:34.520Z,55.89
2019-03-06T07:14:42.362Z,55.84
2019-03-06T07:15:47.487Z,55.90
2019-03-06T07:16:57.993Z,55.92
2019-03-06T07:18:08.520Z,55.97
2019-03-06T07:19:13.643Z,56.02
2019-03-06T07:20:24.610Z,56.06
2019-03-06T07:21:29.709Z,56.07
2019-03-06T07:22:43.634Z,56.18
2019-03-06T07:23:54.284Z,56.25
2019-03-06T07:25:07.928Z,56.24
2019-03-06T07:26:13.050Z,56.16
2019-03-06T07:27:23.820Z,56.14
2019-03-06T07:28:28.922Z,56.06
2019-03-06T07:29:42.669Z,56.10
2019-03-06T07:30:56.626Z,56.08
2019-03-06T07:32:17.809Z,56.12
2019-03-06T07:33:28.707Z,56.09
2019-03-06T07:34:51.374Z,56.12
2019-03-06T07:36:10.198Z,56.18
2019-03-06T07:37:17.969Z,56.18
2019-03-06T07:38:21.503Z,56.28
2019-03-06T07:39:26.719Z,56.34
2019-03-06T07:40:31.797Z,56.37
2019-03-06T07:41:45.755Z,56.39
2019-03-06T07:42:53.515Z,56.41
2019-03-06T07:43:58.623Z,56.39
2019-03-06T07:45:41.172Z,56.28
2019-03-06T07:46:58.297Z,56.40
2019-03-06T07:48:06.164Z,56.29
2019-03-06T07:49:11.243Z,56.30
2019-03-06T07:50:28.108Z,56.33
2019-03-06T07:51:39.162Z,56.27
2019-03-06T07:52:47.199Z,56.33
2019-03-06T07:53:53.819Z,56.36
2019-03-06T07:55:08.091Z,56.39
2019-03-06T07:56:13.168Z,56.43
2019-03-06T07:57:18.299Z,56.42
2019-03-06T07:58:47.390Z,56.47
2019-03-06T07:59:50.829Z,56.54
2019-03-06T08:00:54.363Z,56.53
2019-03-06T08:02:09.696Z,56.53
2019-03-06T08:03:14.310Z,56.54
2019-03-06T08:04:17.918Z,56.49
2019-03-06T08:05:21.352Z,56.49
2019-03-06T08:06:24.821Z,56.44
2019-03-06T08:07:28.271Z,56.45
2019-03-06T08:08:31.713Z,56.43
2019-03-06T08:09:35.185Z,56.45
2019-03-06T08:10:39.067Z,56.44
2019-03-06T08:12:02.459Z,56.52
2019-03-06T08:13:10.488Z,56.58
2019-03-06T08:14:22.058Z,56.68
2019-03-06T08:15:34.635Z,56.83
2019-03-06T08:16:39.715Z,56.43
2019-03-06T08:17:59.901Z,55.40
2019-03-06T08:19:10.417Z,54.30
2019-03-06T08:20:21.370Z,53.77
2019-03-06T08:21:32.217Z,52.84
2019-03-06T08:22:53.237Z,52.43
2019-03-06T08:23:58.327Z,50.68
2019-03-06T08:25:03.424Z,49.81
2019-03-06T08:26:07.113Z,49.07
2019-03-06T08:27:10.569Z,49.10
2019-03-06T08:28:14.842Z,49.37
2019-03-06T08:29:18.301Z,49.11
2019-03-06T08:30:23.098Z,49.53
2019-03-06T08:31:28.189Z,49.91
2019-03-06T08:32:31.642Z,50.14
2019-03-06T08:33:35.097Z,50.37
2019-03-06T08:34:38.568Z,50.53
2019-03-06T08:35:42.024Z,50.67
2019-03-06T08:36:45.482Z,50.56
2019-03-06T08:37:48.934Z,50.42
2019-03-06T08:38:52.414Z,50.55
2019-03-06T08:39:56.115Z,50.53
2019-03-06T08:41:04.371Z,50.49
2019-03-06T08:42:05.095Z,50.50
2019-03-06T08:43:08.545Z,50.58
2019-03-06T08:44:12.024Z,50.69
2019-03-06T08:45:19.994Z,50.74
2019-03-06T08:46:43.236Z,50.91
2019-03-06T08:47:48.646Z,51.08
2019-03-06T08:49:09.774Z,51.19
2019-03-06T08:50:15.022Z,51.33
2019-03-06T08:51:20.130Z,51.44
2019-03-06T08:52:30.889Z,51.58
2019-03-06T08:53:42.062Z,51.72
2019-03-06T08:54:52.978Z,51.85
2019-03-06T08:55:58.143Z,52.00
2019-03-06T08:57:05.955Z,52.16
2019-03-06T08:58:11.054Z,52.23
2019-03-06T08:59:16.150Z,52.33
2019-03-06T09:00:37.917Z,52.46
2019-03-06T09:02:00.248Z,52.52
2019-03-06T09:03:18.089Z,52.60
2019-03-06T09:04:23.196Z,52.67
2019-03-06T09:05:34.006Z,52.75
2019-03-06T09:06:39.643Z,52.83
2019-03-06T09:07:47.752Z,52.89
2019-03-06T09:09:02.620Z,52.94
2019-03-06T09:10:09.457Z,53.01
2019-03-06T09:11:17.593Z,53.09
2019-03-06T09:12:38.435Z,53.15
2019-03-06T09:13:46.462Z,53.21
2019-03-06T09:15:03.779Z,53.28
2019-03-06T09:16:24.895Z,53.32
2019-03-06T09:17:35.852Z,53.39
2019-03-06T09:18:43.878Z,53.47
2019-03-06T09:19:51.562Z,53.51
2019-03-06T09:21:02.441Z,53.56
2019-03-06T09:22:17.260Z,53.63
2019-03-06T09:23:36.935Z,53.65
2019-03-06T09:24:42.030Z,53.72
2019-03-06T09:26:02.983Z,53.76
2019-03-06T09:27:11.144Z,53.79
2019-03-06T09:28:20.601Z,53.85
2019-03-06T09:29:25.797Z,53.90
2019-03-06T09:30:30.907Z,53.95
2019-03-06T09:31:44.879Z,53.98
2019-03-06T09:33:06.154Z,54.00
2019-03-06T09:34:28.275Z,54.02
2019-03-06T09:35:39.417Z,54.07
2019-03-06T09:36:53.360Z,54.12
2019-03-06T09:38:14.353Z,54.15
2019-03-06T09:39:25.832Z,54.18
2019-03-06T09:40:45.747Z,54.20
2019-03-06T09:41:54.171Z,54.24
2019-03-06T09:43:05.096Z,54.31
2019-03-06T09:44:16.087Z,54.33
2019-03-06T09:45:24.188Z,54.36
2019-03-06T09:46:31.763Z,54.40
2019-03-06T09:47:36.873Z,54.45
2019-03-06T09:48:42.022Z,54.47
2019-03-06T09:49:52.744Z,54.50
2019-03-06T09:51:00.499Z,54.54
2019-03-06T09:52:05.651Z,54.55
2019-03-06T09:53:10.770Z,54.59
2019-03-06T09:54:18.833Z,54.62
2019-03-06T09:55:39.739Z,54.65
2019-03-06T09:56:50.261Z,54.66
2019-03-06T09:57:55.341Z,54.67
2019-03-06T09:59:11.904Z,54.70
2019-03-06T10:00:28.793Z,54.73
2019-03-06T10:01:40.074Z,54.80
2019-03-06T10:02:45.184Z,54.80
2019-03-06T10:03:56.106Z,54.82
2019-03-06T10:05:03.724Z,54.84
2019-03-06T10:06:11.611Z,54.89
2019-03-06T10:07:16.691Z,54.93
2019-03-06T10:08:21.796Z,54.93
2019-03-06T10:09:32.728Z,54.96
2019-03-06T10:10:46.019Z,55.00
2019-03-06T10:12:02.720Z,54.99
2019-03-06T10:13:19.916Z,55.02
2019-03-06T10:14:25.068Z,55.01
2019-03-06T10:15:30.262Z,55.01
2019-03-06T10:16:38.317Z,55.03
2019-03-06T10:17:52.158Z,55.03
2019-03-06T10:19:00.313Z,55.04
2019-03-06T10:20:06.560Z,55.06
2019-03-06T10:21:10.118Z,55.10
2019-03-06T10:22:13.624Z,55.14
2019-03-06T10:23:17.141Z,55.16
2019-03-06T10:24:20.602Z,55.18
2019-03-06T10:26:29.387Z,55.18
2019-03-06T10:27:32.922Z,55.20
2019-03-06T10:28:36.705Z,55.23
2019-03-06T10:29:40.470Z,55.26
2019-03-06T10:30:43.980Z,55.29
2019-03-06T10:31:47.437Z,55.28
2019-03-06T10:32:50.975Z,55.29
2019-03-06T10:33:54.413Z,55.30
2019-03-06T10:34:57.880Z,55.31
2019-03-06T10:36:01.349Z,55.30
2019-03-06T10:38:16.473Z,55.31
2019-03-06T10:39:16.219Z,55.32
2019-03-06T10:40:19.897Z,55.32
2019-03-06T10:41:26.441Z,55.33
2019-03-06T10:42:29.890Z,55.31
2019-03-06T10:43:33.345Z,55.31
2019-03-06T10:44:36.798Z,55.31
2019-03-06T10:46:45.626Z,55.27
2019-03-06T10:47:49.292Z,55.32
2019-03-06T10:48:52.744Z,55.29
2019-03-06T10:49:56.196Z,55.28
2019-03-06T10:50:59.712Z,55.29
2019-03-06T10:52:03.325Z,55.31
2019-03-06T10:53:07.193Z,55.31
2019-03-06T10:54:10.732Z,55.32
2019-03-06T10:55:16.918Z,55.36
2019-03-06T10:56:20.524Z,55.34
2019-03-06T10:57:24.043Z,55.36
2019-03-06T10:58:27.641Z,55.33
2019-03-06T10:59:31.161Z,55.33
2019-03-06T11:00:36.502Z,55.32
2019-03-06T11:01:40.038Z,55.34
2019-03-06T11:02:43.556Z,55.36
2019-03-06T11:04:03.393Z,55.39
2019-03-06T11:05:11.849Z,55.43
2019-03-06T11:06:15.738Z,55.42
2019-03-06T11:07:20.233Z,55.42
2019-03-06T11:08:25.050Z,55.41
2019-03-06T11:09:28.889Z,55.43
2019-03-06T11:10:33.978Z,55.45
2019-03-06T11:11:37.868Z,55.49
2019-03-06T11:12:41.391Z,55.51
2019-03-06T11:13:44.920Z,55.57
2019-03-06T11:14:48.721Z,55.60
2019-03-06T11:15:55.802Z,55.61
2019-03-06T11:16:57.579Z,55.62
2019-03-06T11:18:01.403Z,55.63
2019-03-06T11:19:06.269Z,55.63
2019-03-06T11:20:24.669Z,55.63
2019-03-06T11:21:28.198Z,55.65
2019-03-06T11:22:31.747Z,55.66
2019-03-06T11:23:35.259Z,55.65
2019-03-06T11:24:38.783Z,55.63
2019-03-06T11:25:42.579Z,55.62
2019-03-06T11:26:46.174Z,55.64
2019-03-06T11:27:49.789Z,55.64
2019-03-06T11:28:53.578Z,55.67
2019-03-06T11:29:57.538Z,55.68
2019-03-06T11:31:01.543Z,55.68
2019-03-06T11:32:06.237Z,55.68
2019-03-06T11:33:11.370Z,55.69
2019-03-06T11:34:14.965Z,55.71
2019-03-06T11:35:21.531Z,55.70
2019-03-06T11:36:25.125Z,55.72
2019-03-06T11:37:28.819Z,55.70
2019-03-06T11:38:32.433Z,55.71
2019-03-06T11:39:35.954Z,55.72
2019-03-06T11:40:39.650Z,55.74
2019-03-06T11:41:43.174Z,55.75
2019-03-06T11:42:46.766Z,55.74
2019-03-06T11:43:51.419Z,55.75
2019-03-06T11:44:55.047Z,55.72
2019-03-06T11:45:58.721Z,55.74
2019-03-06T11:47:02.335Z,55.75
2019-03-06T11:48:06.727Z,55.74
2019-03-06T11:49:10.271Z,55.74
2019-03-06T11:50:14.571Z,55.77
2019-03-06T11:51:18.089Z,55.79
2019-03-06T11:52:22.517Z,55.77
2019-03-06T11:53:26.211Z,55.78
2019-03-06T11:54:29.758Z,55.79
2019-03-06T11:55:33.643Z,55.80
2019-03-06T11:56:37.366Z,55.80
2019-03-06T11:57:41.156Z,55.80
2019-03-06T11:58:44.749Z,55.80
2019-03-06T11:59:48.473Z,55.80
2019-03-06T12:00:52.366Z,55.82
2019-03-06T12:01:55.817Z,55.83
2019-03-06T12:02:59.270Z,55.82
2019-03-06T12:04:02.788Z,55.81
2019-03-06T12:05:07.398Z,55.82
2019-03-06T12:06:10.922Z,55.82
2019-03-06T12:07:14.369Z,55.83
2019-03-06T12:08:19.470Z,55.82
2019-03-06T12:09:27.978Z,55.84
2019-03-06T12:10:31.503Z,55.86
2019-03-06T12:11:34.975Z,55.86
2019-03-06T12:12:38.426Z,55.89
2019-03-06T12:13:42.021Z,55.88
2019-03-06T12:14:45.625Z,55.88
2019-03-06T12:15:51.008Z,55.89
2019-03-06T12:16:54.601Z,55.90
2019-03-06T12:17:58.113Z,55.92
2019-03-06T12:19:01.573Z,55.92
2019-03-06T12:20:08.388Z,55.90
2019-03-06T12:21:12.079Z,55.91
2019-03-06T12:22:15.604Z,55.90
2019-03-06T12:23:19.125Z,55.92
2019-03-06T12:24:22.708Z,55.92
2019-03-06T12:25:26.182Z,55.92
2019-03-06T12:26:29.768Z,55.92
2019-03-06T12:27:33.221Z,55.92
2019-03-06T12:28:36.750Z,55.90
2019-03-06T12:29:40.271Z,55.86
2019-03-06T12:30:44.059Z,55.85
2019-03-06T12:31:47.669Z,55.84
2019-03-06T12:32:51.189Z,55.84
2019-03-06T12:33:54.720Z,55.83
2019-03-06T12:34:58.167Z,55.85
2019-03-06T12:36:01.713Z,55.87
2019-03-06T12:37:05.359Z,55.92
2019-03-06T12:38:10.799Z,55.93
2019-03-06T12:39:14.237Z,55.92
2019-03-06T12:40:19.964Z,55.94
2019-03-06T12:41:26.254Z,55.92
2019-03-06T12:42:29.778Z,55.95
2019-03-06T12:43:33.364Z,55.95
2019-03-06T12:44:36.818Z,55.94
2019-03-06T12:45:40.821Z,55.97
2019-03-06T12:46:44.929Z,55.96
2019-03-06T12:48:15.055Z,55.99
2019-03-06T12:49:18.573Z,55.96
2019-03-06T12:50:30.843Z,55.95
2019-03-06T12:51:34.366Z,55.96
2019-03-06T12:52:37.830Z,55.99
2019-03-06T12:53:41.367Z,56.02
2019-03-06T12:54:44.828Z,56.05
2019-03-06T12:55:48.455Z,56.05
2019-03-06T12:56:51.923Z,56.04
2019-03-06T12:57:59.349Z,56.06
2019-03-06T12:59:00.637Z,56.03
2019-03-06T13:00:16.204Z,56.06
2019-03-06T13:01:19.757Z,56.08
2019-03-06T13:02:23.195Z,56.05
2019-03-06T13:03:26.708Z,56.06
2019-03-06T13:04:30.213Z,56.06
2019-03-06T13:05:33.679Z,56.06
2019-03-06T13:06:37.292Z,56.09
2019-03-06T13:07:40.799Z,56.08
2019-03-06T13:08:50.251Z,56.07
2019-03-06T13:09:49.512Z,56.07
2019-03-06T13:10:52.948Z,56.05
2019-03-06T13:11:56.484Z,56.04
2019-03-06T13:13:00.099Z,56.04
2019-03-06T13:14:03.658Z,56.04
2019-03-06T13:15:10.171Z,56.07
2019-03-06T13:16:13.675Z,56.06
2019-03-06T13:17:17.159Z,56.06
2019-03-06T13:18:20.622Z,56.07
2019-03-06T13:19:24.193Z,56.07
2019-03-06T13:20:27.798Z,56.07
2019-03-06T13:21:31.237Z,56.07
2019-03-06T13:22:34.779Z,56.08
2019-03-06T13:23:38.773Z,56.08
2019-03-06T13:24:42.235Z,56.10
2019-03-06T13:25:45.771Z,56.12
2019-03-06T13:26:49.246Z,56.08
2019-03-06T13:27:55.046Z,56.09
2019-03-06T13:28:58.017Z,56.09
2019-03-06T13:30:01.471Z,56.11
2019-03-06T13:31:05.275Z,56.09
2019-03-06T13:32:11.746Z,56.07
2019-03-06T13:33:27.744Z,56.08
2019-03-06T13:34:32.899Z,56.07
2019-03-06T13:35:40.068Z,56.06
2019-03-06T13:36:43.581Z,56.11
2019-03-06T13:37:47.186Z,56.10
2019-03-06T13:38:54.996Z,56.09
2019-03-06T13:39:55.813Z,56.09
2019-03-06T13:40:59.294Z,56.09
2019-03-06T13:42:02.732Z,56.09
2019-03-06T13:43:06.337Z,56.10
2019-03-06T13:44:09.845Z,56.10
2019-03-06T13:45:15.020Z,56.11
2019-03-06T13:46:18.579Z,56.12
2019-03-06T13:47:22.189Z,56.13
2019-03-06T13:48:25.660Z,56.15
2019-03-06T13:49:29.129Z,56.14
2019-03-06T13:50:32.564Z,56.13
2019-03-06T13:51:36.126Z,56.11
2019-03-06T13:52:39.634Z,56.14
2019-03-06T13:53:43.088Z,56.13
2019-03-06T13:54:46.577Z,56.13
2019-03-06T13:55:50.083Z,56.13
2019-03-06T13:56:53.715Z,56.14
2019-03-06T13:57:57.308Z,56.12
2019-03-06T13:59:00.744Z,56.13
2019-03-06T14:00:07.263Z,56.12
2019-03-06T14:01:12.080Z,56.11
2019-03-06T14:02:15.967Z,56.13
2019-03-06T14:03:19.557Z,56.14
2019-03-06T14:04:23.086Z,56.13
2019-03-06T14:05:26.906Z,56.12
2019-03-06T14:06:30.602Z,56.13
2019-03-06T14:07:34.151Z,56.14
2019-03-06T14:08:37.685Z,56.13
2019-03-06T14:09:41.261Z,56.13
2019-03-06T14:10:44.769Z,56.13